HTI weather

Hamilton Island Airport
Hamilton Island, Queensland, Australia

Public forecast

Using degrees Celsius for public forecast. Weather courtesy of forecast.io.

METAR (pilot weather report)

Retrieved 2017/12/11 04:30 UTC (0 seconds ago):

YBHM 110430Z AUTO 10015KT 9999 // NCD 27/22 Q1011

TAF (pilot weather forecast)

Forecast is more than 12 hours old.

Retrieved 2017/12/10 06:00 UTC (22 hours ago):

TAF YBHM 100511Z 1006/1018 12021KT 9999 SCT030